createdAt,value
2023-02-17T09:59:20.767Z,17.53
2023-02-17T10:01:52.194Z,16.44
2023-02-17T10:04:40.088Z,17.77
2023-02-17T10:08:05.053Z,15.70
2023-02-17T10:10:46.487Z,16.25
2023-02-17T10:13:25.812Z,15.90
2023-02-17T10:15:59.398Z,17.67
2023-02-17T10:18:53.580Z,17.49
2023-02-17T10:21:33.050Z,18.77
2023-02-17T10:24:00.201Z,19.73
2023-02-17T10:26:39.558Z,20.10
2023-02-17T10:29:35.572Z,12.12
2023-02-17T10:32:25.444Z,13.45
2023-02-17T10:35:18.134Z,12.21
2023-02-17T10:38:20.403Z,12.87
2023-02-17T10:40:51.856Z,13.59
2023-02-17T10:43:47.385Z,14.22
2023-02-17T10:46:22.579Z,13.94
2023-02-17T10:48:56.159Z,13.59
2023-02-17T10:51:28.801Z,13.74
2023-02-17T10:54:14.083Z,13.78
2023-02-17T10:56:57.959Z,13.36
2023-02-17T10:59:50.080Z,12.76
2023-02-17T11:02:32.809Z,14.52
2023-02-17T11:05:00.158Z,14.60
2023-02-17T11:07:34.295Z,14.78
2023-02-17T11:10:20.010Z,13.92
2023-02-17T11:12:47.582Z,13.71
2023-02-17T11:15:24.738Z,15.24
2023-02-17T11:18:42.874Z,13.41
2023-02-17T11:21:13.279Z,16.48
2023-02-17T11:23:56.455Z,15.07
2023-02-17T11:26:33.124Z,17.66
2023-02-17T11:29:23.055Z,14.55
2023-02-17T11:32:12.636Z,16.93
2023-02-17T11:34:44.513Z,16.20
2023-02-17T11:37:14.820Z,15.27
2023-02-17T11:39:50.406Z,15.09
2023-02-17T11:42:31.700Z,15.12
2023-02-17T11:45:23.313Z,14.77
2023-02-17T11:48:05.655Z,14.25
2023-02-17T11:50:56.335Z,14.52
2023-02-17T11:54:04.062Z,14.16
2023-02-17T11:56:39.393Z,14.15
2023-02-17T11:59:56.821Z,14.33
2023-02-17T12:02:42.747Z,15.89
2023-02-17T12:05:10.034Z,16.89
2023-02-17T12:07:37.427Z,16.42
2023-02-17T12:10:45.737Z,16.17
2023-02-17T12:13:24.813Z,15.77
2023-02-17T12:16:09.943Z,19.53
2023-02-17T12:19:05.624Z,17.62
2023-02-17T12:22:14.797Z,14.77
2023-02-17T12:25:40.973Z,14.26
2023-02-17T12:28:11.107Z,16.51
2023-02-17T12:30:46.752Z,15.18
2023-02-17T12:34:07.542Z,14.84
2023-02-17T12:36:40.559Z,14.64
2023-02-17T12:39:18.987Z,15.96
2023-02-17T12:42:44.508Z,14.88
2023-02-17T12:45:24.014Z,15.11
2023-02-17T12:47:56.488Z,17.54
2023-02-17T12:50:33.088Z,15.73
2023-02-17T12:53:08.737Z,14.62
2023-02-17T12:55:48.541Z,14.60
2023-02-17T12:58:35.908Z,15.77
2023-02-17T13:01:18.937Z,15.43
2023-02-17T13:04:09.744Z,14.81
2023-02-17T13:06:49.169Z,17.21
2023-02-17T13:09:42.233Z,16.45
2023-02-17T13:12:12.007Z,17.41
2023-02-17T13:15:03.457Z,23.32
2023-02-17T13:17:52.215Z,21.79
2023-02-17T13:20:19.404Z,20.58
2023-02-17T13:22:47.637Z,18.25
2023-02-17T13:25:37.333Z,17.38
2023-02-17T13:28:33.387Z,17.66
2023-02-17T13:31:13.191Z,17.84
2023-02-17T13:33:54.990Z,15.29
2023-02-17T13:36:28.010Z,15.61
2023-02-17T13:39:08.540Z,14.41
2023-02-17T13:41:48.803Z,14.02
2023-02-17T13:44:41.851Z,14.17
2023-02-17T13:47:26.649Z,13.84
2023-02-17T13:52:44.105Z,15.05
2023-02-17T13:55:20.391Z,17.84
2023-02-17T13:57:57.727Z,16.58
2023-02-17T14:00:32.635Z,18.03
2023-02-17T14:03:27.022Z,16.69
2023-02-17T14:06:01.127Z,16.81
2023-02-17T14:08:43.456Z,15.03
2023-02-17T14:11:25.875Z,14.04
2023-02-17T14:13:57.435Z,14.83
2023-02-17T14:16:39.060Z,15.35
2023-02-17T14:19:12.925Z,16.19
2023-02-17T14:21:57.746Z,16.67
2023-02-17T14:24:38.064Z,16.84
2023-02-17T14:27:14.767Z,21.00
2023-02-17T14:29:55.535Z,22.17
2023-02-17T14:32:37.245Z,18.14
2023-02-17T14:35:29.701Z,18.79
2023-02-17T14:38:21.249Z,16.84
2023-02-17T14:40:57.588Z,16.61
2023-02-17T14:43:25.698Z,16.87
2023-02-17T14:45:53.409Z,17.09
2023-02-17T14:48:20.587Z,17.03
2023-02-17T14:50:48.676Z,15.39
2023-02-17T14:53:30.036Z,13.89
2023-02-17T14:56:07.607Z,15.66
2023-02-17T14:58:35.320Z,15.57
2023-02-17T15:01:02.872Z,15.00
2023-02-17T15:03:30.111Z,14.45
2023-02-17T15:05:57.681Z,15.22
2023-02-17T15:08:35.445Z,14.58
2023-02-17T15:11:03.819Z,14.55
2023-02-17T15:13:32.002Z,16.43
2023-02-17T15:15:59.954Z,16.33
2023-02-17T15:18:28.243Z,15.68
2023-02-17T15:20:55.688Z,14.57
2023-02-17T15:23:25.741Z,14.94
2023-02-17T15:25:58.856Z,15.22
2023-02-17T15:28:26.004Z,14.03
2023-02-17T15:31:00.683Z,12.59
2023-02-17T15:33:28.814Z,11.96
2023-02-17T15:35:56.250Z,12.17
2023-02-17T15:38:24.750Z,12.25
2023-02-17T15:40:52.230Z,12.03
2023-02-17T15:43:22.798Z,12.16
2023-02-17T15:45:50.478Z,12.06
2023-02-17T15:48:26.638Z,12.18
2023-02-17T15:50:54.685Z,12.28
2023-02-17T15:53:22.400Z,11.54
2023-02-17T15:55:51.297Z,11.40
2023-02-17T15:58:22.404Z,11.55
2023-02-17T16:00:51.368Z,11.54
2023-02-17T16:03:19.021Z,11.78
2023-02-17T16:05:46.499Z,12.27
2023-02-17T16:08:19.818Z,12.10
2023-02-17T16:10:47.341Z,11.93
2023-02-17T16:16:01.830Z,12.15
2023-02-17T16:18:29.063Z,12.90
2023-02-17T16:20:56.138Z,12.71
2023-02-17T16:23:23.479Z,12.83
2023-02-17T16:25:51.327Z,12.21
2023-02-17T16:28:22.290Z,11.94
2023-02-17T16:30:51.105Z,12.19
2023-02-17T16:33:19.102Z,12.59
2023-02-17T16:35:48.771Z,11.65
2023-02-17T16:42:15.995Z,10.92
2023-02-17T16:44:44.309Z,10.97
2023-02-17T16:47:22.600Z,10.70
2023-02-17T16:49:50.596Z,10.89
2023-02-17T16:52:25.594Z,10.72
2023-02-17T16:54:53.761Z,10.71
2023-02-17T16:57:21.823Z,10.86
2023-02-17T16:59:48.932Z,11.34
2023-02-17T17:02:16.084Z,11.15
2023-02-17T17:04:43.348Z,11.24
2023-02-17T17:07:16.137Z,10.78
2023-02-17T17:09:48.614Z,11.24
2023-02-17T17:12:19.521Z,11.09
2023-02-17T17:14:46.632Z,11.29
2023-02-17T17:17:13.733Z,11.01
2023-02-17T17:19:41.060Z,10.75
2023-02-17T17:22:08.143Z,10.66
2023-02-17T17:24:35.394Z,11.09
2023-02-17T17:27:03.270Z,11.41
2023-02-17T17:29:30.396Z,11.18
2023-02-17T17:31:57.612Z,10.45
2023-02-17T17:34:25.365Z,10.75
2023-02-17T17:36:52.495Z,11.01
2023-02-17T17:39:23.525Z,10.87
2023-02-17T17:41:52.088Z,10.61
2023-02-17T17:44:20.663Z,11.16
2023-02-17T17:46:47.824Z,11.10
2023-02-17T17:49:18.287Z,11.22
2023-02-17T17:51:45.643Z,10.53
2023-02-17T17:54:12.799Z,10.76
2023-02-17T17:56:43.204Z,10.87
2023-02-17T17:59:13.139Z,10.65
2023-02-17T18:01:40.839Z,10.75
2023-02-17T18:04:09.527Z,10.66
2023-02-17T18:06:45.871Z,10.72
2023-02-17T18:09:30.673Z,10.25
2023-02-17T18:12:03.785Z,10.66
2023-02-17T18:14:32.208Z,10.21
2023-02-17T18:16:59.794Z,10.44
2023-02-17T18:19:27.110Z,10.40
2023-02-17T18:21:54.235Z,10.44
2023-02-17T18:24:21.428Z,10.00
2023-02-17T18:26:50.821Z,10.49
2023-02-17T18:29:19.582Z,10.31
2023-02-17T18:31:47.540Z,10.11
2023-02-17T18:34:14.801Z,10.20
2023-02-17T18:36:41.965Z,10.28
2023-02-17T18:39:09.071Z,10.30
2023-02-17T18:41:37.406Z,10.14
2023-02-17T18:44:06.055Z,10.13
2023-02-17T18:46:33.724Z,10.29
2023-02-17T18:49:01.276Z,10.17
2023-02-17T18:51:28.579Z,10.10
2023-02-17T18:54:01.115Z,9.99
2023-02-17T18:56:32.652Z,9.95
2023-02-17T18:59:00.439Z,10.20
2023-02-17T19:01:39.614Z,9.96
2023-02-17T19:04:09.710Z,10.16
2023-02-17T19:06:37.250Z,9.95
2023-02-17T19:09:04.655Z,10.05
2023-02-17T19:11:34.145Z,10.14
2023-02-17T19:14:02.827Z,10.20
2023-02-17T19:16:32.788Z,9.97
2023-02-17T19:19:01.745Z,10.40
2023-02-17T19:21:28.981Z,10.14
2023-02-17T19:23:56.669Z,10.14
2023-02-17T19:26:24.036Z,10.06
2023-02-17T19:28:51.369Z,9.85
2023-02-17T19:31:20.642Z,9.70
2023-02-17T19:33:48.134Z,9.89
2023-02-17T19:36:19.521Z,9.68
2023-02-17T19:38:49.006Z,9.58
2023-02-17T19:41:19.878Z,9.70
2023-02-17T19:43:47.568Z,9.77
2023-02-17T19:46:19.960Z,9.79
2023-02-17T19:48:47.283Z,9.85
2023-02-17T19:51:14.672Z,9.66
2023-02-17T19:53:46.421Z,9.82
2023-02-17T19:56:28.515Z,9.47
2023-02-17T19:58:56.685Z,9.56
2023-02-17T20:01:32.454Z,9.48
2023-02-17T20:04:05.366Z,9.61
2023-02-17T20:06:46.140Z,9.42
2023-02-17T20:09:23.101Z,9.72
2023-02-17T20:11:54.285Z,9.53
2023-02-17T20:14:22.130Z,9.39
2023-02-17T20:16:49.681Z,9.25
2023-02-17T20:19:17.217Z,9.43
2023-02-17T20:21:46.848Z,9.20
2023-02-17T20:24:15.192Z,9.14
2023-02-17T20:26:46.625Z,9.36
2023-02-17T20:29:14.945Z,9.10
2023-02-17T20:31:42.846Z,9.37
2023-02-17T20:34:34.048Z,9.12
2023-02-17T20:37:01.847Z,9.16
2023-02-17T20:39:29.410Z,9.22
2023-02-17T20:41:57.204Z,9.27
2023-02-17T20:44:27.904Z,9.44
2023-02-17T20:46:56.660Z,9.48
2023-02-17T20:49:25.494Z,9.06
2023-02-17T20:51:53.194Z,9.06
2023-02-17T20:54:20.260Z,9.64
2023-02-17T20:56:48.652Z,9.25
2023-02-17T20:59:15.911Z,9.26
2023-02-17T21:01:43.487Z,9.49
2023-02-17T21:04:11.081Z,9.84
2023-02-17T21:06:41.502Z,9.43
2023-02-17T21:09:16.561Z,9.22
2023-02-17T21:11:45.427Z,9.47
2023-02-17T21:14:13.416Z,9.77
2023-02-17T21:16:40.900Z,9.78
2023-02-17T21:19:08.071Z,9.83
2023-02-17T21:21:36.161Z,9.67
2023-02-17T21:24:03.466Z,9.70
2023-02-17T21:26:30.645Z,9.49
2023-02-17T21:28:57.964Z,9.19
2023-02-17T21:31:29.076Z,9.33
2023-02-17T21:33:57.715Z,9.27
2023-02-17T21:36:24.952Z,8.79
2023-02-17T21:38:52.296Z,8.86
2023-02-17T21:41:27.790Z,8.77
2023-02-17T21:44:14.115Z,8.87
2023-02-17T21:46:43.135Z,8.88
2023-02-17T21:49:11.642Z,8.92
2023-02-17T21:51:40.620Z,9.28
2023-02-17T21:54:09.539Z,9.32
2023-02-17T21:56:37.071Z,9.34
2023-02-17T21:59:05.024Z,9.59
2023-02-17T22:01:33.340Z,9.89
2023-02-17T22:04:00.798Z,9.96
2023-02-17T22:06:35.616Z,10.12
2023-02-17T22:09:04.770Z,9.04
2023-02-17T22:11:34.867Z,9.69
2023-02-17T22:14:06.622Z,9.38
2023-02-17T22:16:36.170Z,8.31
2023-02-17T22:19:06.687Z,8.61
2023-02-17T22:21:34.491Z,9.17
2023-02-17T22:24:03.693Z,9.43
2023-02-17T22:26:31.766Z,8.84
2023-02-17T22:28:59.131Z,8.66
2023-02-17T22:31:30.334Z,8.77
2023-02-17T22:34:00.342Z,9.03
2023-02-17T22:36:28.552Z,8.92
2023-02-17T22:38:56.061Z,8.42
2023-02-17T22:41:26.014Z,8.77
2023-02-17T22:43:54.198Z,8.78
2023-02-17T22:46:25.019Z,8.60
2023-02-17T22:48:53.210Z,8.37
2023-02-17T22:51:25.090Z,8.73
2023-02-17T22:53:52.626Z,8.09
2023-02-17T22:56:21.226Z,8.05
2023-02-17T22:58:53.837Z,8.12
2023-02-17T23:01:22.127Z,7.98
2023-02-17T23:03:52.946Z,7.81
2023-02-17T23:06:25.566Z,7.99
2023-02-17T23:08:53.826Z,8.20
2023-02-17T23:12:01.371Z,8.10
2023-02-17T23:14:34.831Z,8.16
2023-02-17T23:17:11.759Z,8.11
2023-02-17T23:19:41.458Z,8.07
2023-02-17T23:22:16.264Z,7.93
2023-02-17T23:24:45.041Z,8.10
2023-02-17T23:27:12.437Z,7.98
2023-02-17T23:29:41.796Z,8.07
2023-02-17T23:32:09.244Z,8.12
2023-02-17T23:34:36.543Z,8.25
2023-02-17T23:37:03.679Z,8.29
2023-02-17T23:39:31.369Z,8.34
2023-02-17T23:41:58.744Z,8.34
2023-02-17T23:44:25.886Z,8.32
2023-02-17T23:46:52.977Z,8.41
2023-02-17T23:49:20.211Z,8.62
2023-02-17T23:53:05.631Z,8.36
2023-02-17T23:55:32.933Z,8.44
2023-02-17T23:58:00.778Z,8.27
